Time;durP1;ratioP1;P1;durP2;ratioP2;P2;SDS_P1;SDS_P2;PMS_P1;PMS_P2;Temp;Humidity;BMP_temperature;BMP_pressure;BME280_temperature;BME280_humidity;BME280_pressure;Samples;Min_cycle;Max_cycle;Signal;HPM_P1;HPM_P2
2022/03/13 00:00:19;;;;;;;;;;;9.00;99.90;;;;;;4970133;28;20124;-86
2022/03/13 00:02:49;;;;;;;;;;;8.80;99.90;;;;;;4950918;29;19930;-84
2022/03/13 00:05:18;;;;;;;;;;;9.00;99.90;;;;;;4969841;29;19934;-85
2022/03/13 00:07:47;;;;;;;;;;;8.90;99.90;;;;;;4968867;29;19926;-86
2022/03/13 00:10:24;;;;;;;;;;;8.90;99.90;;;;;;4952077;29;19927;-85
2022/03/13 00:12:52;;;;;;;;;;;8.90;99.90;;;;;;4967580;29;19930;-84
2022/03/13 00:15:25;;;;;;;;;;;8.80;99.90;;;;;;4949995;29;19927;-84
2022/03/13 00:17:53;;;;;;;;;;;9.20;99.90;;;;;;4951059;29;19945;-84
2022/03/13 00:20:22;;;;;;;;;;;8.20;99.90;;;;;;4965117;29;19937;-86
2022/03/13 00:22:50;;;;;;;;;;;9.00;99.90;;;;;;4948617;29;19931;-85
2022/03/13 00:25:18;;;;;;;;;;;8.90;99.90;;;;;;4966859;29;19930;-84
2022/03/13 00:27:46;;;;;;;;;;;8.90;99.90;;;;;;4967146;29;19937;-85
2022/03/13 00:30:16;;;;;;;;;;;8.40;99.90;;;;;;4966285;29;19931;-85
2022/03/13 00:32:46;;;;;;;;;;;7.70;99.90;;;;;;4952430;29;19926;-85
2022/03/13 00:35:14;;;;;;;;;;;8.90;99.90;;;;;;4969178;28;19934;-87
2022/03/13 00:37:43;;;;;;;;;;;8.80;99.90;;;;;;4970059;29;19931;-86
2022/03/13 00:40:16;;;;;;;;;;;8.90;99.90;;;;;;4968355;29;19927;-86
2022/03/13 00:42:44;;;;;;;;;;;8.90;99.90;;;;;;4963635;28;19927;-85
2022/03/13 00:45:14;;;;;;;;;;;8.70;99.90;;;;;;4968165;29;19930;-85
2022/03/13 00:47:45;;;;;;;;;;;8.70;99.90;;;;;;4968941;29;19956;-84
2022/03/13 00:50:14;;;;;;;;;;;7.80;99.90;;;;;;4969349;29;19930;-85
2022/03/13 00:52:46;;;;;;;;;;;9.00;99.90;;;;;;4970683;29;19940;-89
2022/03/13 00:55:14;;;;;;;;;;;9.10;99.90;;;;;;4971902;29;19926;-86
2022/03/13 00:57:47;;;;;;;;;;;10.00;99.90;;;;;;4961714;29;19937;-85
2022/03/13 01:00:19;;;;;;;;;;;8.90;99.90;;;;;;4968901;29;19931;-84
2022/03/13 01:02:50;;;;;;;;;;;9.20;99.90;;;;;;4970015;29;19926;-84
2022/03/13 01:05:23;;;;;;;;;;;9.00;99.90;;;;;;4931286;29;19930;-87
2022/03/13 01:07:52;;;;;;;;;;;9.10;99.90;;;;;;4963094;29;19926;-86
2022/03/13 01:10:24;;;;;;;;;;;9.40;99.90;;;;;;4968632;29;19931;-86
2022/03/13 01:12:55;;;;;;;;;;;9.00;99.90;;;;;;4951146;29;19941;-85
2022/03/13 01:15:27;;;;;;;;;;;9.20;99.90;;;;;;4966467;29;19930;-85
2022/03/13 01:17:56;;;;;;;;;;;9.10;99.90;;;;;;4949881;29;19931;-85
2022/03/13 01:20:24;;;;;;;;;;;9.40;99.90;;;;;;4965074;29;19926;-84
2022/03/13 01:22:52;;;;;;;;;;;9.00;99.90;;;;;;4969960;29;19956;-87
2022/03/13 01:25:26;;;;;;;;;;;9.00;99.90;;;;;;4968893;29;19937;-85
2022/03/13 01:27:58;;;;;;;;;;;9.20;99.90;;;;;;4957021;29;19931;-85
2022/03/13 01:30:30;;;;;;;;;;;8.90;99.90;;;;;;4966392;29;19927;-85
2022/03/13 01:32:59;;;;;;;;;;;7.80;99.90;;;;;;4968283;29;19926;-85
2022/03/13 01:35:28;;;;;;;;;;;9.00;99.90;;;;;;4968466;29;19934;-84
2022/03/13 01:37:59;;;;;;;;;;;9.00;99.90;;;;;;4951833;29;19926;-86
2022/03/13 01:40:27;;;;;;;;;;;8.80;99.90;;;;;;4968050;29;19930;-85
2022/03/13 01:43:01;;;;;;;;;;;8.80;99.90;;;;;;4962234;29;19934;-86
2022/03/13 01:45:30;;;;;;;;;;;8.90;99.90;;;;;;4944586;29;19926;-85
2022/03/13 01:47:58;;;;;;;;;;;8.70;99.90;;;;;;4967205;28;19937;-84
2022/03/13 01:50:28;;;;;;;;;;;8.80;99.90;;;;;;4967913;29;19937;-84
2022/03/13 01:53:02;;;;;;;;;;;8.60;99.90;;;;;;4971579;29;19930;-84
2022/03/13 01:55:30;;;;;;;;;;;8.70;99.90;;;;;;4968641;29;19927;-81
2022/03/13 01:58:03;;;;;;;;;;;8.60;99.90;;;;;;4937675;29;19936;-84
2022/03/13 02:00:32;;;;;;;;;;;8.60;99.90;;;;;;4967958;29;19930;-84
2022/03/13 02:03:04;;;;;;;;;;;8.70;99.90;;;;;;4962182;29;19934;-85
2022/03/13 02:05:33;;;;;;;;;;;8.70;99.90;;;;;;4968566;29;19933;-85
2022/03/13 02:08:10;;;;;;;;;;;8.60;99.90;;;;;;4967769;29;19922;-86
2022/03/13 02:10:42;;;;;;;;;;;8.60;99.90;;;;;;4967850;29;19933;-84
2022/03/13 02:13:14;;;;;;;;;;;8.60;99.90;;;;;;4970249;29;19929;-83
2022/03/13 02:15:43;;;;;;;;;;;8.70;99.90;;;;;;4968635;29;20015;-85
2022/03/13 02:18:12;;;;;;;;;;;8.70;99.90;;;;;;4968031;29;19930;-85
2022/03/13 02:20:44;;;;;;;;;;;8.50;99.90;;;;;;4969333;29;19930;-85
2022/03/13 02:23:36;;;;;;;;;;;8.50;99.90;;;;;;4970160;29;19930;-85
2022/03/13 02:26:06;;;;;;;;;;;8.40;99.90;;;;;;4961462;29;19933;-85
2022/03/13 02:28:35;;;;;;;;;;;8.60;99.90;;;;;;4965586;29;19930;-84
2022/03/13 02:31:06;;;;;;;;;;;8.40;99.90;;;;;;4951702;29;19934;-86
2022/03/13 02:33:38;;;;;;;;;;;8.40;99.90;;;;;;4953667;29;19927;-85
2022/03/13 02:36:26;;;;;;;;;;;8.40;99.90;;;;;;4968495;29;19926;-84
2022/03/13 02:38:55;;;;;;;;;;;8.30;99.90;;;;;;4968009;29;19927;-85
2022/03/13 02:41:26;;;;;;;;;;;8.60;99.90;;;;;;4948023;29;19941;-85
2022/03/13 02:43:54;;;;;;;;;;;8.30;99.90;;;;;;4967235;29;19937;-84
2022/03/13 02:46:45;;;;;;;;;;;7.30;99.90;;;;;;4947383;29;20316;-85
2022/03/13 02:49:17;;;;;;;;;;;8.70;99.90;;;;;;4965553;29;20414;-84
2022/03/13 02:52:04;;;;;;;;;;;8.30;99.90;;;;;;4970285;29;19927;-83
2022/03/13 02:54:36;;;;;;;;;;;8.30;99.90;;;;;;4970900;29;19935;-84
2022/03/13 02:57:04;;;;;;;;;;;8.50;99.90;;;;;;4969225;29;19931;-83
2022/03/13 02:59:33;;;;;;;;;;;8.30;99.90;;;;;;4967819;28;19938;-84
2022/03/13 03:02:03;;;;;;;;;;;9.10;99.90;;;;;;4971892;29;19946;-84
2022/03/13 03:04:34;;;;;;;;;;;8.30;99.90;;;;;;4971103;29;19927;-84
2022/03/13 03:07:03;;;;;;;;;;;8.40;99.90;;;;;;4953316;29;19927;-84
2022/03/13 03:09:34;;;;;;;;;;;8.50;99.90;;;;;;4948565;29;19926;-84
2022/03/13 03:12:05;;;;;;;;;;;8.40;99.90;;;;;;4972984;29;19930;-83
2022/03/13 03:14:36;;;;;;;;;;;8.70;99.90;;;;;;4972350;29;19931;-84
2022/03/13 03:17:08;;;;;;;;;;;8.50;99.90;;;;;;4971307;29;19934;-83
2022/03/13 03:19:37;;;;;;;;;;;8.50;99.90;;;;;;4971893;29;19937;-82
2022/03/13 03:22:08;;;;;;;;;;;9.00;99.90;;;;;;4939968;29;19927;-85
2022/03/13 03:24:38;;;;;;;;;;;8.50;99.90;;;;;;4973156;29;19933;-85
2022/03/13 03:27:09;;;;;;;;;;;8.60;99.90;;;;;;4971530;29;19941;-86
2022/03/13 03:29:37;;;;;;;;;;;8.60;99.90;;;;;;4971998;29;19938;-86
2022/03/13 03:32:07;;;;;;;;;;;8.50;99.90;;;;;;4972158;29;19926;-83
2022/03/13 03:34:42;;;;;;;;;;;8.50;99.90;;;;;;4968198;29;19927;-84
2022/03/13 03:37:10;;;;;;;;;;;8.60;99.90;;;;;;4970676;29;20308;-84
2022/03/13 03:39:45;;;;;;;;;;;8.50;99.90;;;;;;4956283;29;19932;-85
2022/03/13 03:42:13;;;;;;;;;;;7.50;99.90;;;;;;4971777;29;19934;-85
2022/03/13 03:44:42;;;;;;;;;;;8.60;99.90;;;;;;4952209;29;19933;-84
2022/03/13 03:47:10;;;;;;;;;;;8.60;99.90;;;;;;4984829;28;19933;-85
2022/03/13 03:49:41;;;;;;;;;;;7.10;99.90;;;;;;4971787;29;19927;-85
2022/03/13 03:52:14;;;;;;;;;;;8.60;99.90;;;;;;4973288;29;19934;-85
2022/03/13 03:54:45;;;;;;;;;;;8.60;99.90;;;;;;4956568;29;19927;-85
2022/03/13 03:57:15;;;;;;;;;;;8.60;99.90;;;;;;4969778;29;19961;-85
2022/03/13 03:59:48;;;;;;;;;;;7.10;99.90;;;;;;4931088;29;19927;-85
2022/03/13 04:02:16;;;;;;;;;;;8.60;99.90;;;;;;4968374;29;19933;-86
2022/03/13 04:04:46;;;;;;;;;;;8.60;99.90;;;;;;4970066;29;19932;-87
2022/03/13 04:07:16;;;;;;;;;;;8.70;99.90;;;;;;4955583;29;19933;-86
2022/03/13 04:09:45;;;;;;;;;;;8.70;99.90;;;;;;4970284;28;19927;-87
2022/03/13 04:12:17;;;;;;;;;;;9.80;99.90;;;;;;4938777;29;20448;-85
2022/03/13 04:14:45;;;;;;;;;;;9.10;99.90;;;;;;4948383;29;19927;-84
2022/03/13 04:17:13;;;;;;;;;;;8.80;99.90;;;;;;4915577;29;19937;-84
2022/03/13 04:19:44;;;;;;;;;;;8.90;99.90;;;;;;4923804;29;19931;-84
2022/03/13 04:22:15;;;;;;;;;;;8.90;99.90;;;;;;4948280;29;19954;-85
2022/03/13 04:24:42;;;;;;;;;;;8.90;99.90;;;;;;4949687;29;19927;-85
2022/03/13 04:27:10;;;;;;;;;;;8.90;99.90;;;;;;4916607;29;19957;-86
2022/03/13 04:29:38;;;;;;;;;;;9.00;99.90;;;;;;4949648;29;19930;-85
2022/03/13 04:32:10;;;;;;;;;;;9.00;99.90;;;;;;4932334;29;19927;-85
2022/03/13 04:34:39;;;;;;;;;;;9.10;99.90;;;;;;4916855;29;19938;-84
2022/03/13 04:37:08;;;;;;;;;;;9.10;99.90;;;;;;4935886;29;19933;-84
2022/03/13 04:39:39;;;;;;;;;;;9.10;99.90;;;;;;4930126;29;19927;-85
2022/03/13 04:42:08;;;;;;;;;;;9.10;99.90;;;;;;4931694;29;19927;-84
2022/03/13 04:44:37;;;;;;;;;;;9.20;99.90;;;;;;4931239;29;19933;-86
2022/03/13 04:47:05;;;;;;;;;;;9.20;99.90;;;;;;4933166;29;19933;-84
2022/03/13 04:49:33;;;;;;;;;;;9.20;99.90;;;;;;4932797;29;19931;-85
2022/03/13 04:52:02;;;;;;;;;;;9.30;99.90;;;;;;4950838;29;19941;-85
2022/03/13 04:54:29;;;;;;;;;;;9.20;99.90;;;;;;4935996;29;19931;-87
2022/03/13 04:56:57;;;;;;;;;;;7.80;99.90;;;;;;4934999;29;19931;-86
2022/03/13 04:59:25;;;;;;;;;;;9.30;99.90;;;;;;4931763;29;19927;-85
2022/03/13 05:01:53;;;;;;;;;;;9.40;99.90;;;;;;4948944;29;19927;-86
2022/03/13 05:04:21;;;;;;;;;;;9.40;99.90;;;;;;4915323;29;19927;-85
2022/03/13 05:06:49;;;;;;;;;;;9.40;99.90;;;;;;4932336;29;19957;-85
2022/03/13 05:09:17;;;;;;;;;;;9.30;99.90;;;;;;4950052;28;19930;-86
2022/03/13 05:11:45;;;;;;;;;;;9.30;99.90;;;;;;4968462;29;20025;-84
2022/03/13 05:14:14;;;;;;;;;;;7.60;99.90;;;;;;4967611;29;19936;-84
2022/03/13 05:16:41;;;;;;;;;;;9.70;99.90;;;;;;4965718;29;19935;-84
2022/03/13 05:19:09;;;;;;;;;;;9.30;99.90;;;;;;4949075;29;20461;-85
2022/03/13 05:21:41;;;;;;;;;;;9.40;99.90;;;;;;4958838;28;20410;-85
2022/03/13 05:24:10;;;;;;;;;;;8.00;99.90;;;;;;4967501;29;19927;-86
2022/03/13 05:26:38;;;;;;;;;;;9.30;99.90;;;;;;4966954;29;19933;-86
2022/03/13 05:29:05;;;;;;;;;;;9.40;99.90;;;;;;4966753;29;19926;-85
2022/03/13 05:31:36;;;;;;;;;;;9.40;99.90;;;;;;4968063;29;19927;-84
2022/03/13 05:34:10;;;;;;;;;;;9.30;99.90;;;;;;4949104;29;20488;-88
2022/03/13 05:36:39;;;;;;;;;;;9.40;99.90;;;;;;4951490;29;19930;-85
2022/03/13 05:39:07;;;;;;;;;;;9.50;99.90;;;;;;4968170;29;19937;-87
2022/03/13 05:41:39;;;;;;;;;;;9.40;99.90;;;;;;4966678;29;19933;-84
2022/03/13 05:44:14;;;;;;;;;;;9.40;99.90;;;;;;4950222;29;19933;-85
2022/03/13 05:46:41;;;;;;;;;;;9.50;99.90;;;;;;4967288;29;19926;-85
2022/03/13 05:49:12;;;;;;;;;;;9.70;99.90;;;;;;4965612;29;19927;-84
2022/03/13 05:51:42;;;;;;;;;;;9.40;99.90;;;;;;4949530;29;20388;-86
2022/03/13 05:54:15;;;;;;;;;;;9.40;99.90;;;;;;4960770;29;19941;-84
2022/03/13 05:56:45;;;;;;;;;;;9.80;99.90;;;;;;4966784;29;19935;-83
2022/03/13 05:59:13;;;;;;;;;;;9.40;99.90;;;;;;4966837;29;19930;-85
2022/03/13 06:01:44;;;;;;;;;;;10.60;99.90;;;;;;4965220;29;19926;-83
2022/03/13 06:04:14;;;;;;;;;;;9.50;99.90;;;;;;4945050;29;19927;-84
2022/03/13 06:06:52;;;;;;;;;;;9.60;99.90;;;;;;4958882;29;19926;-86
2022/03/13 06:09:22;;;;;;;;;;;9.30;99.90;;;;;;4965142;28;19931;-86
2022/03/13 06:11:56;;;;;;;;;;;9.30;99.90;;;;;;4951182;29;19946;-86
2022/03/13 06:14:25;;;;;;;;;;;9.30;99.90;;;;;;4946655;29;20614;-85
2022/03/13 06:16:53;;;;;;;;;;;9.10;99.90;;;;;;4926610;29;19926;-86
2022/03/13 06:19:23;;;;;;;;;;;9.30;99.90;;;;;;4925171;29;19927;-85
2022/03/13 06:21:52;;;;;;;;;;;9.60;99.90;;;;;;4919946;29;19934;-85
2022/03/13 06:24:21;;;;;;;;;;;9.30;99.90;;;;;;4932619;29;19942;-85
2022/03/13 06:26:51;;;;;;;;;;;9.20;99.90;;;;;;4960888;29;19926;-86
2022/03/13 06:29:22;;;;;;;;;;;9.60;99.90;;;;;;4957021;29;20380;-84
2022/03/13 06:31:55;;;;;;;;;;;10.70;99.90;;;;;;4934382;29;19946;-85
2022/03/13 06:34:24;;;;;;;;;;;9.30;99.90;;;;;;4949692;29;19931;-85
2022/03/13 06:36:53;;;;;;;;;;;9.40;99.90;;;;;;4948485;29;19947;-84
2022/03/13 06:39:23;;;;;;;;;;;9.30;99.90;;;;;;4941284;29;19933;-85
2022/03/13 06:41:55;;;;;;;;;;;9.40;99.90;;;;;;4953403;29;19927;-86
2022/03/13 06:44:23;;;;;;;;;;;8.10;99.90;;;;;;4951745;29;19934;-86
2022/03/13 06:46:52;;;;;;;;;;;9.30;99.90;;;;;;4938121;29;19927;-85
2022/03/13 06:49:22;;;;;;;;;;;9.30;99.90;;;;;;4931244;29;19945;-86
2022/03/13 06:51:50;;;;;;;;;;;9.40;99.90;;;;;;4937582;29;19937;-84
2022/03/13 06:54:22;;;;;;;;;;;9.30;99.90;;;;;;4956746;29;19937;-85
2022/03/13 06:56:50;;;;;;;;;;;9.30;99.90;;;;;;4927329;29;19935;-85
2022/03/13 06:59:20;;;;;;;;;;;9.30;99.90;;;;;;4963008;29;19927;-88
2022/03/13 07:01:49;;;;;;;;;;;9.40;99.90;;;;;;4962789;29;19930;-85
2022/03/13 07:04:17;;;;;;;;;;;9.40;99.90;;;;;;4953429;29;19930;-85
2022/03/13 07:06:45;;;;;;;;;;;9.30;99.90;;;;;;4939909;29;19937;-85
2022/03/13 07:09:15;;;;;;;;;;;9.40;99.90;;;;;;4934300;28;19939;-85
2022/03/13 07:11:45;;;;;;;;;;;9.50;99.90;;;;;;4947595;29;19938;-86
2022/03/13 07:14:14;;;;;;;;;;;7.90;99.90;;;;;;4949715;29;19927;-86
2022/03/13 07:16:43;;;;;;;;;;;9.40;99.90;;;;;;4965698;29;19926;-87
2022/03/13 07:19:11;;;;;;;;;;;9.40;99.90;;;;;;4965494;29;19930;-83
2022/03/13 07:21:39;;;;;;;;;;;9.50;99.90;;;;;;4964597;29;19930;-85
2022/03/13 07:24:07;;;;;;;;;;;9.60;99.90;;;;;;4964648;29;19938;-84
2022/03/13 07:26:35;;;;;;;;;;;8.50;99.90;;;;;;4965200;29;19941;-84
2022/03/13 07:29:03;;;;;;;;;;;9.60;99.90;;;;;;4966970;29;19931;-84
2022/03/13 07:31:31;;;;;;;;;;;8.40;99.90;;;;;;4965352;29;19941;-85
2022/03/13 07:34:03;;;;;;;;;;;9.60;99.90;;;;;;4964860;29;19927;-86
2022/03/13 07:36:34;;;;;;;;;;;9.60;99.90;;;;;;4960582;29;19931;-85
2022/03/13 07:39:02;;;;;;;;;;;9.00;99.90;;;;;;4963749;29;19934;-84
2022/03/13 07:41:31;;;;;;;;;;;9.80;99.90;;;;;;4964193;29;19933;-84
2022/03/13 07:44:00;;;;;;;;;;;9.80;99.90;;;;;;4963427;29;19933;-85
2022/03/13 07:46:28;;;;;;;;;;;9.60;99.90;;;;;;4968690;28;19930;-86
2022/03/13 07:48:56;;;;;;;;;;;9.80;99.90;;;;;;4948853;29;19926;-83
2022/03/13 07:51:25;;;;;;;;;;;9.70;99.90;;;;;;4950138;29;19929;-85
2022/03/13 07:53:56;;;;;;;;;;;8.40;99.90;;;;;;4959385;29;19931;-86
2022/03/13 07:56:25;;;;;;;;;;;9.80;99.90;;;;;;4972425;29;19933;-84
2022/03/13 07:58:52;;;;;;;;;;;9.70;99.90;;;;;;4962153;29;19937;-84
2022/03/13 08:01:22;;;;;;;;;;;9.80;99.90;;;;;;4971172;29;19927;-86
2022/03/13 08:03:51;;;;;;;;;;;9.90;99.90;;;;;;4953768;29;19927;-86
2022/03/13 08:06:19;;;;;;;;;;;9.70;99.90;;;;;;4967638;29;19931;-86
2022/03/13 08:08:48;;;;;;;;;;;9.80;99.90;;;;;;4951514;29;19953;-85
2022/03/13 08:11:16;;;;;;;;;;;11.00;99.90;;;;;;4969203;29;19949;-86
2022/03/13 08:13:43;;;;;;;;;;;9.80;99.90;;;;;;4951503;29;19946;-85
2022/03/13 08:16:12;;;;;;;;;;;9.80;99.90;;;;;;4967222;29;20396;-85
2022/03/13 08:18:40;;;;;;;;;;;9.80;99.90;;;;;;4967629;29;19933;-87
2022/03/13 08:21:09;;;;;;;;;;;9.90;99.90;;;;;;4976383;28;19941;-87
2022/03/13 08:23:37;;;;;;;;;;;10.00;99.90;;;;;;4968585;29;19926;-86
2022/03/13 08:26:05;;;;;;;;;;;8.80;99.90;;;;;;4949368;29;19930;-86
2022/03/13 08:28:33;;;;;;;;;;;10.20;99.90;;;;;;4954125;29;19933;-85
2022/03/13 08:31:04;;;;;;;;;;;10.50;99.90;;;;;;4968999;29;19926;-83
2022/03/13 08:33:33;;;;;;;;;;;10.30;99.90;;;;;;4967381;29;19934;-85
2022/03/13 08:36:07;;;;;;;;;;;10.20;99.90;;;;;;4948722;29;19931;-84
2022/03/13 08:38:34;;;;;;;;;;;10.30;99.90;;;;;;4968348;29;19945;-85
2022/03/13 08:41:04;;;;;;;;;;;10.40;99.90;;;;;;4947557;29;20321;-84
2022/03/13 08:43:32;;;;;;;;;;;10.50;99.90;;;;;;4967562;29;20404;-86
2022/03/13 08:46:01;;;;;;;;;;;11.90;99.90;;;;;;4965638;28;19937;-86
2022/03/13 08:48:30;;;;;;;;;;;10.60;99.90;;;;;;4965920;29;19933;-87
2022/03/13 08:50:59;;;;;;;;;;;10.80;99.90;;;;;;4967754;29;19937;-86
2022/03/13 08:53:27;;;;;;;;;;;10.60;99.90;;;;;;4949783;29;19930;-88
2022/03/13 08:55:55;;;;;;;;;;;9.50;99.90;;;;;;4970852;29;19941;-85
2022/03/13 08:58:28;;;;;;;;;;;10.90;99.90;;;;;;4968960;29;19930;-86
2022/03/13 09:01:03;;;;;;;;;;;11.10;99.90;;;;;;4968562;29;19926;-86
2022/03/13 09:03:31;;;;;;;;;;;11.20;99.90;;;;;;4964053;29;19931;-86
2022/03/13 09:06:00;;;;;;;;;;;11.30;99.90;;;;;;4968706;29;19927;-87
2022/03/13 09:08:29;;;;;;;;;;;11.40;99.90;;;;;;4949103;29;19941;-85
2022/03/13 09:10:58;;;;;;;;;;;11.30;99.90;;;;;;4966678;29;19941;-86
2022/03/13 09:13:27;;;;;;;;;;;11.50;99.90;;;;;;4970042;29;19961;-87
2022/03/13 09:15:56;;;;;;;;;;;11.60;99.90;;;;;;4969297;29;19927;-86
2022/03/13 09:18:30;;;;;;;;;;;11.70;99.90;;;;;;4951534;29;19927;-88
2022/03/13 09:20:58;;;;;;;;;;;12.10;99.90;;;;;;4950504;29;19938;-88
2022/03/13 09:23:28;;;;;;;;;;;11.70;99.90;;;;;;4966165;29;20227;-87
2022/03/13 09:25:56;;;;;;;;;;;12.10;99.90;;;;;;4949445;29;19937;-85
2022/03/13 09:28:26;;;;;;;;;;;12.00;99.90;;;;;;4967581;29;19930;-87
2022/03/13 09:30:55;;;;;;;;;;;12.00;99.90;;;;;;4964075;29;19937;-86
2022/03/13 09:33:27;;;;;;;;;;;12.20;99.90;;;;;;4963959;29;20266;-86
2022/03/13 09:35:55;;;;;;;;;;;11.90;99.90;;;;;;4966284;29;19930;-85
2022/03/13 09:38:25;;;;;;;;;;;11.50;99.90;;;;;;4950389;29;19926;-84
2022/03/13 09:40:58;;;;;;;;;;;11.90;99.90;;;;;;4950494;29;19935;-86
2022/03/13 09:43:26;;;;;;;;;;;12.00;99.90;;;;;;4950750;29;19938;-84
2022/03/13 09:45:54;;;;;;;;;;;12.00;99.90;;;;;;4967141;29;19936;-86
2022/03/13 09:48:49;;;;;;;;;;;12.30;99.90;;;;;;4977788;23;19915;-87
2022/03/13 09:51:19;;;;;;;;;;;12.10;99.90;;;;;;4889628;29;19931;-86
2022/03/13 09:53:49;;;;;;;;;;;12.10;99.90;;;;;;4922309;29;19934;-88
2022/03/13 09:56:23;;;;;;;;;;;12.20;99.90;;;;;;4928339;29;20160;-87
2022/03/13 09:58:54;;;;;;;;;;;12.20;99.90;;;;;;4922316;29;21508;-88
2022/03/13 10:01:24;;;;;;;;;;;12.30;99.90;;;;;;4904693;29;19932;-88
2022/03/13 10:03:58;;;;;;;;;;;12.30;99.90;;;;;;4932407;29;19927;-87
2022/03/13 10:06:27;;;;;;;;;;;12.30;99.90;;;;;;4916966;29;19938;-87
2022/03/13 10:09:19;;;;;;;;;;;12.30;99.90;;;;;;4923988;29;19934;-88
2022/03/13 10:12:01;;;;;;;;;;;13.00;99.90;;;;;;4925874;29;19931;-88
2022/03/13 10:14:39;;;;;;;;;;;12.20;99.90;;;;;;4925489;29;19927;-88
2022/03/13 10:17:29;;;;;;;;;;;12.20;99.90;;;;;;4927338;29;20306;-88
2022/03/13 10:23:36;;;;;;;;;;;12.50;99.90;;;;;;4909911;29;19927;-86
2022/03/13 10:26:05;;;;;;;;;;;12.50;99.90;;;;;;4894155;29;19928;-87
2022/03/13 10:28:35;;;;;;;;;;;12.90;99.90;;;;;;4876779;29;19928;-87
2022/03/13 10:31:05;;;;;;;;;;;12.70;99.90;;;;;;4888646;29;19931;-86
2022/03/13 10:33:58;;;;;;;;;;;12.80;99.90;;;;;;4882569;29;19935;-83
2022/03/13 10:36:33;;;;;;;;;;;13.00;99.90;;;;;;4885934;29;20298;-85
2022/03/13 10:39:04;;;;;;;;;;;13.10;99.90;;;;;;4871337;29;19928;-85
2022/03/13 10:41:44;;;;;;;;;;;13.00;99.90;;;;;;4898864;29;19938;-86
2022/03/13 10:44:17;;;;;;;;;;;13.10;99.90;;;;;;4895253;29;19928;-87
2022/03/13 10:46:46;;;;;;;;;;;12.30;99.90;;;;;;4886094;29;19931;-86
2022/03/13 10:49:30;;;;;;;;;;;12.80;99.90;;;;;;4890442;29;19929;-85
2022/03/13 10:51:59;;;;;;;;;;;13.10;99.90;;;;;;4872648;29;19943;-86
2022/03/13 10:54:38;;;;;;;;;;;12.50;99.90;;;;;;4870118;29;19936;-85
2022/03/13 10:57:08;;;;;;;;;;;13.30;99.90;;;;;;4873797;29;19932;-85
2022/03/13 10:59:41;;;;;;;;;;;13.10;99.90;;;;;;4890259;29;20267;-86
2022/03/13 11:02:15;;;;;;;;;;;13.20;99.90;;;;;;4869471;29;19954;-85
2022/03/13 11:04:57;;;;;;;;;;;13.30;99.90;;;;;;4863544;29;19932;-87
2022/03/13 11:07:27;;;;;;;;;;;13.30;99.90;;;;;;4881255;29;19928;-85
2022/03/13 11:09:56;;;;;;;;;;;12.80;99.90;;;;;;4872981;29;19928;-86
2022/03/13 11:12:24;;;;;;;;;;;13.00;99.90;;;;;;4864928;29;19932;-85
2022/03/13 11:14:56;;;;;;;;;;;13.40;99.90;;;;;;4843823;29;20420;-85
2022/03/13 11:17:28;;;;;;;;;;;13.30;99.90;;;;;;4878102;29;19944;-85
2022/03/13 11:19:56;;;;;;;;;;;13.30;99.90;;;;;;4869587;29;19938;-85
2022/03/13 11:22:25;;;;;;;;;;;13.30;99.90;;;;;;4887250;29;19932;-85
2022/03/13 11:25:00;;;;;;;;;;;13.50;99.90;;;;;;4882634;29;19940;-85
2022/03/13 11:27:33;;;;;;;;;;;13.30;99.90;;;;;;4887704;29;19932;-84
2022/03/13 11:30:03;;;;;;;;;;;13.10;99.90;;;;;;4881026;29;19939;-84
2022/03/13 11:32:33;;;;;;;;;;;11.40;99.90;;;;;;4882502;29;19936;-84
2022/03/13 11:35:11;;;;;;;;;;;13.20;99.90;;;;;;4883621;29;19932;-85
2022/03/13 11:37:52;;;;;;;;;;;13.20;99.90;;;;;;4897832;29;19932;-84
2022/03/13 11:40:30;;;;;;;;;;;14.00;99.90;;;;;;4884222;29;19932;-85
2022/03/13 11:43:13;;;;;;;;;;;13.00;99.90;;;;;;4873288;29;19942;-84
2022/03/13 11:45:47;;;;;;;;;;;12.70;99.90;;;;;;4884234;29;19928;-85
2022/03/13 11:48:22;;;;;;;;;;;12.70;99.90;;;;;;4871769;29;19932;-84
2022/03/13 11:51:00;;;;;;;;;;;13.60;99.90;;;;;;4873584;29;19939;-84
2022/03/13 11:53:32;;;;;;;;;;;12.60;99.90;;;;;;4878084;29;19943;-82
2022/03/13 11:56:27;;;;;;;;;;;12.50;99.90;;;;;;4888409;29;19942;-83
2022/03/13 11:59:18;;;;;;;;;;;12.70;99.90;;;;;;4886895;29;19950;-85
2022/03/13 12:01:48;;;;;;;;;;;12.50;99.90;;;;;;4874910;29;19928;-83
2022/03/13 12:04:17;;;;;;;;;;;12.50;99.90;;;;;;4883004;29;19932;-84
2022/03/13 12:06:47;;;;;;;;;;;12.50;99.90;;;;;;4882999;29;20229;-84
2022/03/13 12:09:19;;;;;;;;;;;12.60;99.90;;;;;;4884592;29;20597;-84
2022/03/13 12:11:51;;;;;;;;;;;12.50;99.90;;;;;;4899703;29;19936;-83
2022/03/13 12:14:20;;;;;;;;;;;12.50;99.90;;;;;;4896412;29;19939;-83
2022/03/13 12:17:08;;;;;;;;;;;12.40;99.90;;;;;;4866778;29;19932;-86
2022/03/13 12:19:37;;;;;;;;;;;12.50;99.90;;;;;;4861817;29;19927;-84
2022/03/13 12:22:05;;;;;;;;;;;12.40;99.90;;;;;;4900892;29;19934;-84
2022/03/13 12:24:34;;;;;;;;;;;12.30;99.90;;;;;;4892405;29;19934;-84
2022/03/13 12:27:07;;;;;;;;;;;12.30;99.90;;;;;;4901942;29;19932;-84
2022/03/13 12:29:37;;;;;;;;;;;12.20;99.90;;;;;;4893734;29;19934;-83
2022/03/13 12:32:11;;;;;;;;;;;12.10;99.90;;;;;;4890206;29;19928;-85
2022/03/13 12:34:41;;;;;;;;;;;12.00;99.90;;;;;;4886931;29;19928;-83
2022/03/13 12:37:10;;;;;;;;;;;11.70;99.90;;;;;;4890435;29;19931;-81
2022/03/13 12:39:49;;;;;;;;;;;11.50;99.90;;;;;;4891373;29;19928;-83
2022/03/13 12:42:23;;;;;;;;;;;10.80;99.90;;;;;;4889411;29;19932;-83
2022/03/13 12:45:00;;;;;;;;;;;11.50;99.90;;;;;;4874260;29;19927;-83
2022/03/13 12:47:29;;;;;;;;;;;11.30;99.90;;;;;;4885094;29;19931;-81
2022/03/13 12:49:58;;;;;;;;;;;12.90;99.90;;;;;;4854342;29;20437;-81
2022/03/13 12:52:26;;;;;;;;;;;11.30;99.90;;;;;;4871282;29;19928;-83
2022/03/13 12:54:57;;;;;;;;;;;11.40;99.90;;;;;;4885964;29;19951;-81
2022/03/13 12:57:24;;;;;;;;;;;11.40;99.90;;;;;;4901415;29;19928;-82
2022/03/13 12:59:53;;;;;;;;;;;11.30;99.90;;;;;;4886813;29;19938;-83
2022/03/13 13:02:25;;;;;;;;;;;11.60;99.90;;;;;;4886839;29;19931;-83
2022/03/13 13:04:54;;;;;;;;;;;11.50;99.90;;;;;;4886064;29;19951;-82
2022/03/13 13:07:23;;;;;;;;;;;11.50;99.90;;;;;;4885361;29;19936;-82
2022/03/13 13:09:52;;;;;;;;;;;11.70;99.90;;;;;;4886940;29;20286;-82
2022/03/13 13:12:22;;;;;;;;;;;11.60;99.90;;;;;;4883450;29;19935;-83
2022/03/13 13:14:50;;;;;;;;;;;11.50;99.90;;;;;;4871956;29;20138;-82
2022/03/13 13:17:24;;;;;;;;;;;11.40;99.90;;;;;;4885261;29;19935;-84
2022/03/13 13:19:55;;;;;;;;;;;11.40;99.90;;;;;;4887321;29;19931;-84
2022/03/13 13:22:30;;;;;;;;;;;11.50;99.90;;;;;;4901752;29;19939;-84
2022/03/13 13:25:01;;;;;;;;;;;12.20;99.90;;;;;;4888778;29;19935;-83
2022/03/13 13:27:30;;;;;;;;;;;11.40;99.90;;;;;;4872269;29;19932;-84
2022/03/13 13:30:13;;;;;;;;;;;11.40;99.90;;;;;;4888746;29;19931;-80
2022/03/13 13:32:50;;;;;;;;;;;11.40;99.90;;;;;;4887484;29;19939;-83
2022/03/13 13:35:22;;;;;;;;;;;11.50;99.90;;;;;;4902317;29;19986;-82
2022/03/13 13:38:06;;;;;;;;;;;11.50;99.90;;;;;;4887202;29;20266;-83
2022/03/13 13:40:39;;;;;;;;;;;11.60;99.90;;;;;;4872206;29;19946;-83
2022/03/13 13:43:13;;;;;;;;;;;11.80;99.90;;;;;;4885875;29;20027;-83
2022/03/13 13:45:42;;;;;;;;;;;11.70;99.90;;;;;;4889970;29;19934;-84
2022/03/13 13:48:22;;;;;;;;;;;11.80;99.90;;;;;;4873383;29;19956;-82
2022/03/13 13:51:10;;;;;;;;;;;11.70;99.90;;;;;;4895392;29;19931;-83
2022/03/13 13:53:45;;;;;;;;;;;11.80;99.90;;;;;;4877724;29;19932;-81
2022/03/13 13:56:13;;;;;;;;;;;11.90;99.90;;;;;;4880207;29;19928;-83
2022/03/13 13:58:41;;;;;;;;;;;11.70;99.90;;;;;;4881462;29;20093;-83
2022/03/13 14:01:24;;;;;;;;;;;12.20;99.90;;;;;;4892083;29;19951;-84
2022/03/13 14:03:53;;;;;;;;;;;12.10;99.90;;;;;;4884090;29;19927;-82
2022/03/13 14:06:21;;;;;;;;;;;12.10;99.90;;;;;;4878226;29;20309;-82
2022/03/13 14:08:49;;;;;;;;;;;12.00;99.90;;;;;;4883812;29;19932;-85
2022/03/13 14:11:17;;;;;;;;;;;12.50;99.90;;;;;;4877590;29;19928;-83
2022/03/13 14:13:47;;;;;;;;;;;12.00;99.90;;;;;;4878617;29;19948;-85
2022/03/13 14:16:17;;;;;;;;;;;12.00;99.90;;;;;;4879998;29;19943;-83
2022/03/13 14:18:46;;;;;;;;;;;12.00;99.90;;;;;;4868316;29;19935;-83
2022/03/13 14:21:14;;;;;;;;;;;12.00;99.90;;;;;;4883320;29;19939;-86
2022/03/13 14:23:43;;;;;;;;;;;13.80;99.90;;;;;;4866527;29;19943;-84
2022/03/13 14:26:14;;;;;;;;;;;12.00;99.90;;;;;;4884875;29;19932;-83
2022/03/13 14:28:42;;;;;;;;;;;12.00;99.90;;;;;;4873951;29;19938;-83
2022/03/13 14:31:10;;;;;;;;;;;12.50;99.90;;;;;;4862786;29;19932;-82
2022/03/13 14:33:40;;;;;;;;;;;12.00;99.90;;;;;;4855902;29;19928;-81
2022/03/13 14:36:08;;;;;;;;;;;12.00;99.90;;;;;;4863417;29;19999;-82
2022/03/13 14:38:36;;;;;;;;;;;12.10;99.90;;;;;;4874689;29;19932;-83
2022/03/13 14:41:05;;;;;;;;;;;12.10;99.90;;;;;;4878692;29;19995;-84
2022/03/13 14:43:34;;;;;;;;;;;12.10;99.90;;;;;;4884600;29;19935;-83
2022/03/13 14:46:03;;;;;;;;;;;12.20;99.90;;;;;;4876125;29;19932;-84
2022/03/13 14:48:31;;;;;;;;;;;12.20;99.90;;;;;;4882336;29;19936;-87